sensor_id;sensor_type;location;lat;lon;timestamp;temperature;humidity
19060;DHT22;9663;48.996;8.334;2023-01-26T00:01:23;5.40;74.70
19060;DHT22;9663;48.996;8.334;2023-01-26T00:03:52;5.60;74.80
19060;DHT22;9663;48.996;8.334;2023-01-26T00:06:18;5.30;74.70
19060;DHT22;9663;48.996;8.334;2023-01-26T00:08:47;5.10;74.50
19060;DHT22;9663;48.996;8.334;2023-01-26T00:11:16;5.70;74.90
19060;DHT22;9663;48.996;8.334;2023-01-26T00:13:44;5.20;74.50
19060;DHT22;9663;48.996;8.334;2023-01-26T00:16:12;5.20;74.30
19060;DHT22;9663;48.996;8.334;2023-01-26T00:18:39;5.60;74.60
19060;DHT22;9663;48.996;8.334;2023-01-26T00:21:07;5.50;74.30
19060;DHT22;9663;48.996;8.334;2023-01-26T00:23:37;5.40;74.30
19060;DHT22;9663;48.996;8.334;2023-01-26T00:26:05;6.20;74.80
19060;DHT22;9663;48.996;8.334;2023-01-26T00:28:31;6.80;75.00
19060;DHT22;9663;48.996;8.334;2023-01-26T00:31:04;5.60;74.30
19060;DHT22;9663;48.996;8.334;2023-01-26T00:33:31;5.30;74.10
19060;DHT22;9663;48.996;8.334;2023-01-26T00:35:57;5.50;74.40
19060;DHT22;9663;48.996;8.334;2023-01-26T00:38:23;5.00;74.00
19060;DHT22;9663;48.996;8.334;2023-01-26T00:40:49;5.00;74.00
19060;DHT22;9663;48.996;8.334;2023-01-26T00:43:14;5.10;74.30
19060;DHT22;9663;48.996;8.334;2023-01-26T00:45:40;5.30;74.30
19060;DHT22;9663;48.996;8.334;2023-01-26T00:48:06;5.40;74.30
19060;DHT22;9663;48.996;8.334;2023-01-26T00:50:32;5.60;74.50
19060;DHT22;9663;48.996;8.334;2023-01-26T00:52:58;5.40;74.30
19060;DHT22;9663;48.996;8.334;2023-01-26T00:55:25;5.30;74.40
19060;DHT22;9663;48.996;8.334;2023-01-26T00:57:57;7.00;75.60
19060;DHT22;9663;48.996;8.334;2023-01-26T01:00:24;5.00;74.40
19060;DHT22;9663;48.996;8.334;2023-01-26T01:02:50;5.40;74.40
19060;DHT22;9663;48.996;8.334;2023-01-26T01:05:16;7.20;75.40
19060;DHT22;9663;48.996;8.334;2023-01-26T01:07:42;5.40;74.50
19060;DHT22;9663;48.996;8.334;2023-01-26T01:10:08;5.90;74.70
19060;DHT22;9663;48.996;8.334;2023-01-26T01:12:34;5.20;74.00
19060;DHT22;9663;48.996;8.334;2023-01-26T01:15:00;5.60;74.50
19060;DHT22;9663;48.996;8.334;2023-01-26T01:17:26;6.00;74.90
19060;DHT22;9663;48.996;8.334;2023-01-26T01:19:52;5.30;74.30
19060;DHT22;9663;48.996;8.334;2023-01-26T01:22:17;5.40;74.30
19060;DHT22;9663;48.996;8.334;2023-01-26T01:24:43;5.60;74.50
19060;DHT22;9663;48.996;8.334;2023-01-26T01:27:08;6.10;74.80
19060;DHT22;9663;48.996;8.334;2023-01-26T01:29:34;5.40;74.50
19060;DHT22;9663;48.996;8.334;2023-01-26T01:32:00;5.30;74.30
19060;DHT22;9663;48.996;8.334;2023-01-26T01:34:26;5.50;74.60
19060;DHT22;9663;48.996;8.334;2023-01-26T01:36:51;5.00;74.00
19060;DHT22;9663;48.996;8.334;2023-01-26T01:39:17;5.30;74.40
19060;DHT22;9663;48.996;8.334;2023-01-26T01:41:43;5.20;74.50
19060;DHT22;9663;48.996;8.334;2023-01-26T01:49:52;4.80;72.50
19060;DHT22;9663;48.996;8.334;2023-01-26T01:52:24;5.00;74.20
19060;DHT22;9663;48.996;8.334;2023-01-26T01:54:59;5.40;74.50
19060;DHT22;9663;48.996;8.334;2023-01-26T01:57:37;4.60;74.00
19060;DHT22;9663;48.996;8.334;2023-01-26T02:00:14;5.40;74.50
19060;DHT22;9663;48.996;8.334;2023-01-26T02:02:44;5.50;74.40
19060;DHT22;9663;48.996;8.334;2023-01-26T02:05:35;5.10;74.30
19060;DHT22;9663;48.996;8.334;2023-01-26T02:08:05;5.50;74.60
19060;DHT22;9663;48.996;8.334;2023-01-26T02:10:34;5.30;74.70
19060;DHT22;9663;48.996;8.334;2023-01-26T02:13:01;6.50;75.40
19060;DHT22;9663;48.996;8.334;2023-01-26T02:15:29;5.20;75.30
19060;DHT22;9663;48.996;8.334;2023-01-26T02:17:56;5.10;74.40
19060;DHT22;9663;48.996;8.334;2023-01-26T02:23:18;5.10;73.20
19060;DHT22;9663;48.996;8.334;2023-01-26T02:26:06;5.20;73.10
19060;DHT22;9663;48.996;8.334;2023-01-26T02:28:32;5.40;74.00
19060;DHT22;9663;48.996;8.334;2023-01-26T02:30:58;5.60;74.60
19060;DHT22;9663;48.996;8.334;2023-01-26T02:33:27;6.70;75.40
19060;DHT22;9663;48.996;8.334;2023-01-26T02:35:55;5.40;74.70
19060;DHT22;9663;48.996;8.334;2023-01-26T02:38:22;5.30;74.60
19060;DHT22;9663;48.996;8.334;2023-01-26T02:41:01;5.30;74.60
19060;DHT22;9663;48.996;8.334;2023-01-26T02:43:31;5.00;74.30
19060;DHT22;9663;48.996;8.334;2023-01-26T02:45:57;4.70;74.40
19060;DHT22;9663;48.996;8.334;2023-01-26T02:48:23;5.40;74.80
19060;DHT22;9663;48.996;8.334;2023-01-26T02:51:07;5.30;74.50
19060;DHT22;9663;48.996;8.334;2023-01-26T02:53:33;5.10;74.60
19060;DHT22;9663;48.996;8.334;2023-01-26T02:55:59;5.20;74.80
19060;DHT22;9663;48.996;8.334;2023-01-26T02:58:24;5.20;74.80
19060;DHT22;9663;48.996;8.334;2023-01-26T03:00:50;5.40;74.80
19060;DHT22;9663;48.996;8.334;2023-01-26T03:03:22;5.00;74.50
19060;DHT22;9663;48.996;8.334;2023-01-26T03:05:50;6.60;75.40
19060;DHT22;9663;48.996;8.334;2023-01-26T03:08:16;5.20;74.50
19060;DHT22;9663;48.996;8.334;2023-01-26T03:10:43;5.50;74.70
19060;DHT22;9663;48.996;8.334;2023-01-26T03:13:08;5.20;74.50
19060;DHT22;9663;48.996;8.334;2023-01-26T03:15:34;5.90;74.90
19060;DHT22;9663;48.996;8.334;2023-01-26T03:18:16;5.70;73.90
19060;DHT22;9663;48.996;8.334;2023-01-26T03:21:04;5.20;74.50
19060;DHT22;9663;48.996;8.334;2023-01-26T03:24:00;4.90;74.20
19060;DHT22;9663;48.996;8.334;2023-01-26T03:26:45;5.20;74.60
19060;DHT22;9663;48.996;8.334;2023-01-26T03:29:30;5.70;74.90
19060;DHT22;9663;48.996;8.334;2023-01-26T03:31:56;5.20;74.70
19060;DHT22;9663;48.996;8.334;2023-01-26T03:34:23;5.00;74.40
19060;DHT22;9663;48.996;8.334;2023-01-26T03:36:50;5.20;74.70
19060;DHT22;9663;48.996;8.334;2023-01-26T03:39:15;5.80;75.10
19060;DHT22;9663;48.996;8.334;2023-01-26T03:42:00;5.20;73.60
19060;DHT22;9663;48.996;8.334;2023-01-26T03:44:45;5.20;74.90
19060;DHT22;9663;48.996;8.334;2023-01-26T03:47:33;5.00;74.50
19060;DHT22;9663;48.996;8.334;2023-01-26T03:50:19;4.80;74.60
19060;DHT22;9663;48.996;8.334;2023-01-26T03:53:18;4.70;74.60
19060;DHT22;9663;48.996;8.334;2023-01-26T03:56:05;5.20;73.30
19060;DHT22;9663;48.996;8.334;2023-01-26T03:58:58;5.40;75.00
19060;DHT22;9663;48.996;8.334;2023-01-26T04:01:34;5.20;74.80
19060;DHT22;9663;48.996;8.334;2023-01-26T04:04:01;5.60;75.10
19060;DHT22;9663;48.996;8.334;2023-01-26T04:06:48;5.60;75.20
19060;DHT22;9663;48.996;8.334;2023-01-26T04:09:33;5.00;74.80
19060;DHT22;9663;48.996;8.334;2023-01-26T04:12:02;5.30;75.00
19060;DHT22;9663;48.996;8.334;2023-01-26T04:14:28;6.40;75.60
19060;DHT22;9663;48.996;8.334;2023-01-26T04:17:12;4.80;73.40
19060;DHT22;9663;48.996;8.334;2023-01-26T04:19:56;5.20;73.70
19060;DHT22;9663;48.996;8.334;2023-01-26T04:22:41;5.30;73.80
19060;DHT22;9663;48.996;8.334;2023-01-26T04:25:12;5.00;74.60
19060;DHT22;9663;48.996;8.334;2023-01-26T04:27:40;4.70;74.80
19060;DHT22;9663;48.996;8.334;2023-01-26T04:30:08;5.30;75.20
19060;DHT22;9663;48.996;8.334;2023-01-26T04:32:36;4.60;74.40
19060;DHT22;9663;48.996;8.334;2023-01-26T04:35:03;5.10;75.20
19060;DHT22;9663;48.996;8.334;2023-01-26T04:37:30;4.60;75.60
19060;DHT22;9663;48.996;8.334;2023-01-26T04:39:55;4.60;74.90
19060;DHT22;9663;48.996;8.334;2023-01-26T04:42:21;4.80;75.10
19060;DHT22;9663;48.996;8.334;2023-01-26T04:44:49;4.70;75.20
19060;DHT22;9663;48.996;8.334;2023-01-26T04:47:16;5.20;75.50
19060;DHT22;9663;48.996;8.334;2023-01-26T04:49:42;4.40;75.10
19060;DHT22;9663;48.996;8.334;2023-01-26T04:52:07;5.00;75.50
19060;DHT22;9663;48.996;8.334;2023-01-26T04:54:33;4.40;75.10
19060;DHT22;9663;48.996;8.334;2023-01-26T04:56:59;4.80;75.30
19060;DHT22;9663;48.996;8.334;2023-01-26T04:59:24;4.90;75.40
19060;DHT22;9663;48.996;8.334;2023-01-26T05:01:50;4.70;75.50
19060;DHT22;9663;48.996;8.334;2023-01-26T05:04:16;4.40;75.30
19060;DHT22;9663;48.996;8.334;2023-01-26T05:06:41;4.60;75.40
19060;DHT22;9663;48.996;8.334;2023-01-26T05:09:07;4.40;75.40
19060;DHT22;9663;48.996;8.334;2023-01-26T05:11:33;4.90;75.70
19060;DHT22;9663;48.996;8.334;2023-01-26T05:13:59;4.70;75.70
19060;DHT22;9663;48.996;8.334;2023-01-26T05:16:25;4.40;75.50
19060;DHT22;9663;48.996;8.334;2023-01-26T05:18:52;4.50;75.60
19060;DHT22;9663;48.996;8.334;2023-01-26T05:21:19;4.50;75.70
19060;DHT22;9663;48.996;8.334;2023-01-26T05:23:44;4.40;75.40
19060;DHT22;9663;48.996;8.334;2023-01-26T05:26:10;4.70;75.60
19060;DHT22;9663;48.996;8.334;2023-01-26T05:28:36;4.60;75.70
19060;DHT22;9663;48.996;8.334;2023-01-26T05:31:02;4.80;75.70
19060;DHT22;9663;48.996;8.334;2023-01-26T05:33:28;4.20;75.40
19060;DHT22;9663;48.996;8.334;2023-01-26T05:35:53;4.10;75.30
19060;DHT22;9663;48.996;8.334;2023-01-26T05:38:20;4.30;75.40
19060;DHT22;9663;48.996;8.334;2023-01-26T05:40:46;4.40;75.60
19060;DHT22;9663;48.996;8.334;2023-01-26T05:43:12;4.70;75.60
19060;DHT22;9663;48.996;8.334;2023-01-26T05:45:38;4.20;75.40
19060;DHT22;9663;48.996;8.334;2023-01-26T05:48:05;4.50;75.80
19060;DHT22;9663;48.996;8.334;2023-01-26T05:50:31;4.60;75.70
19060;DHT22;9663;48.996;8.334;2023-01-26T05:52:57;4.40;75.90
19060;DHT22;9663;48.996;8.334;2023-01-26T05:55:25;4.40;75.90
19060;DHT22;9663;48.996;8.334;2023-01-26T05:57:51;4.40;76.20
19060;DHT22;9663;48.996;8.334;2023-01-26T06:00:17;4.40;76.00
19060;DHT22;9663;48.996;8.334;2023-01-26T06:02:43;4.30;75.40
19060;DHT22;9663;48.996;8.334;2023-01-26T06:05:09;4.70;76.00
19060;DHT22;9663;48.996;8.334;2023-01-26T06:07:35;4.40;75.80
19060;DHT22;9663;48.996;8.334;2023-01-26T06:10:01;4.60;76.10
19060;DHT22;9663;48.996;8.334;2023-01-26T06:12:27;5.00;76.10
19060;DHT22;9663;48.996;8.334;2023-01-26T06:14:56;4.90;76.20
19060;DHT22;9663;48.996;8.334;2023-01-26T06:17:22;6.80;77.40
19060;DHT22;9663;48.996;8.334;2023-01-26T06:19:48;4.70;76.00
19060;DHT22;9663;48.996;8.334;2023-01-26T06:22:14;4.80;76.20
19060;DHT22;9663;48.996;8.334;2023-01-26T06:24:40;5.20;76.40
19060;DHT22;9663;48.996;8.334;2023-01-26T06:27:07;4.60;76.00
19060;DHT22;9663;48.996;8.334;2023-01-26T06:29:37;4.40;75.80
19060;DHT22;9663;48.996;8.334;2023-01-26T06:32:03;4.50;75.80
19060;DHT22;9663;48.996;8.334;2023-01-26T06:34:29;4.70;75.80
19060;DHT22;9663;48.996;8.334;2023-01-26T06:36:54;4.50;75.80
19060;DHT22;9663;48.996;8.334;2023-01-26T06:39:20;4.70;76.90
19060;DHT22;9663;48.996;8.334;2023-01-26T06:41:46;4.70;76.00
19060;DHT22;9663;48.996;8.334;2023-01-26T06:44:12;4.60;75.70
19060;DHT22;9663;48.996;8.334;2023-01-26T06:46:38;4.60;75.90
19060;DHT22;9663;48.996;8.334;2023-01-26T06:49:04;4.30;75.80
19060;DHT22;9663;48.996;8.334;2023-01-26T06:54:31;4.00;74.10
19060;DHT22;9663;48.996;8.334;2023-01-26T06:56:56;4.50;76.00
19060;DHT22;9663;48.996;8.334;2023-01-26T06:59:22;4.40;76.00
19060;DHT22;9663;48.996;8.334;2023-01-26T07:01:48;4.40;75.70
19060;DHT22;9663;48.996;8.334;2023-01-26T07:04:14;4.60;76.30
19060;DHT22;9663;48.996;8.334;2023-01-26T07:06:41;4.10;76.10
19060;DHT22;9663;48.996;8.334;2023-01-26T07:09:08;4.20;76.10
19060;DHT22;9663;48.996;8.334;2023-01-26T07:11:34;4.50;76.30
19060;DHT22;9663;48.996;8.334;2023-01-26T07:14:00;4.40;76.20
19060;DHT22;9663;48.996;8.334;2023-01-26T07:16:25;5.30;76.80
19060;DHT22;9663;48.996;8.334;2023-01-26T07:18:52;4.60;76.40
19060;DHT22;9663;48.996;8.334;2023-01-26T07:21:20;4.60;76.30
19060;DHT22;9663;48.996;8.334;2023-01-26T07:23:47;4.60;76.40
19060;DHT22;9663;48.996;8.334;2023-01-26T07:26:14;4.30;76.30
19060;DHT22;9663;48.996;8.334;2023-01-26T07:28:40;4.60;76.40
19060;DHT22;9663;48.996;8.334;2023-01-26T07:31:06;4.80;76.60
19060;DHT22;9663;48.996;8.334;2023-01-26T07:33:33;4.00;76.30
19060;DHT22;9663;48.996;8.334;2023-01-26T07:36:00;4.50;76.40
19060;DHT22;9663;48.996;8.334;2023-01-26T07:38:26;4.20;76.20
19060;DHT22;9663;48.996;8.334;2023-01-26T07:40:53;4.20;76.00
19060;DHT22;9663;48.996;8.334;2023-01-26T07:43:19;4.10;76.20
19060;DHT22;9663;48.996;8.334;2023-01-26T07:45:49;4.10;76.10
19060;DHT22;9663;48.996;8.334;2023-01-26T07:48:18;4.50;76.40
19060;DHT22;9663;48.996;8.334;2023-01-26T07:50:45;4.50;76.40
19060;DHT22;9663;48.996;8.334;2023-01-26T07:53:15;4.60;76.60
19060;DHT22;9663;48.996;8.334;2023-01-26T07:55:44;4.80;76.70
19060;DHT22;9663;48.996;8.334;2023-01-26T07:58:11;4.40;76.40
19060;DHT22;9663;48.996;8.334;2023-01-26T08:00:37;4.60;76.40
19060;DHT22;9663;48.996;8.334;2023-01-26T08:03:04;3.90;76.20
19060;DHT22;9663;48.996;8.334;2023-01-26T08:05:30;4.80;76.60
19060;DHT22;9663;48.996;8.334;2023-01-26T08:07:58;4.40;76.20
19060;DHT22;9663;48.996;8.334;2023-01-26T08:10:24;4.40;76.10
19060;DHT22;9663;48.996;8.334;2023-01-26T08:12:58;4.40;76.10
19060;DHT22;9663;48.996;8.334;2023-01-26T08:15:28;4.40;74.80
19060;DHT22;9663;48.996;8.334;2023-01-26T08:17:54;4.30;76.00
19060;DHT22;9663;48.996;8.334;2023-01-26T08:20:20;4.30;76.10
19060;DHT22;9663;48.996;8.334;2023-01-26T08:22:46;4.50;76.40
19060;DHT22;9663;48.996;8.334;2023-01-26T08:25:12;4.60;76.10
19060;DHT22;9663;48.996;8.334;2023-01-26T08:27:37;4.40;76.10
19060;DHT22;9663;48.996;8.334;2023-01-26T08:30:03;4.60;76.30
19060;DHT22;9663;48.996;8.334;2023-01-26T08:32:29;4.50;75.40
19060;DHT22;9663;48.996;8.334;2023-01-26T08:34:55;4.60;76.20
19060;DHT22;9663;48.996;8.334;2023-01-26T08:37:21;4.30;76.10
19060;DHT22;9663;48.996;8.334;2023-01-26T08:39:46;4.70;76.30
19060;DHT22;9663;48.996;8.334;2023-01-26T08:42:12;4.70;76.30
19060;DHT22;9663;48.996;8.334;2023-01-26T08:44:37;5.00;76.50
19060;DHT22;9663;48.996;8.334;2023-01-26T08:47:03;4.70;76.20
19060;DHT22;9663;48.996;8.334;2023-01-26T08:49:29;4.50;76.00
19060;DHT22;9663;48.996;8.334;2023-01-26T08:51:54;4.70;75.80
19060;DHT22;9663;48.996;8.334;2023-01-26T08:54:20;4.90;76.00
19060;DHT22;9663;48.996;8.334;2023-01-26T08:56:46;5.40;76.40
19060;DHT22;9663;48.996;8.334;2023-01-26T08:59:11;5.00;76.00
19060;DHT22;9663;48.996;8.334;2023-01-26T09:01:37;4.50;75.70
19060;DHT22;9663;48.996;8.334;2023-01-26T09:04:02;5.00;76.00
19060;DHT22;9663;48.996;8.334;2023-01-26T09:06:28;4.00;75.00
19060;DHT22;9663;48.996;8.334;2023-01-26T09:08:54;5.20;75.90
19060;DHT22;9663;48.996;8.334;2023-01-26T09:11:21;4.50;75.40
19060;DHT22;9663;48.996;8.334;2023-01-26T09:13:50;4.80;75.70
19060;DHT22;9663;48.996;8.334;2023-01-26T09:16:21;4.60;75.30
19060;DHT22;9663;48.996;8.334;2023-01-26T09:18:49;4.50;75.40
19060;DHT22;9663;48.996;8.334;2023-01-26T09:21:16;5.30;76.40
19060;DHT22;9663;48.996;8.334;2023-01-26T09:23:42;4.60;75.70
19060;DHT22;9663;48.996;8.334;2023-01-26T09:26:08;4.90;75.80
19060;DHT22;9663;48.996;8.334;2023-01-26T09:28:33;4.90;75.70
19060;DHT22;9663;48.996;8.334;2023-01-26T09:31:07;4.40;75.50
19060;DHT22;9663;48.996;8.334;2023-01-26T09:33:34;4.50;75.70
19060;DHT22;9663;48.996;8.334;2023-01-26T09:36:09;4.40;75.70
19060;DHT22;9663;48.996;8.334;2023-01-26T09:38:36;4.70;75.50
19060;DHT22;9663;48.996;8.334;2023-01-26T09:43:57;4.80;74.10
19060;DHT22;9663;48.996;8.334;2023-01-26T09:46:53;5.00;74.50
19060;DHT22;9663;48.996;8.334;2023-01-26T09:49:58;4.60;74.10
19060;DHT22;9663;48.996;8.334;2023-01-26T09:55:14;5.00;74.60
19060;DHT22;9663;48.996;8.334;2023-01-26T09:58:00;5.40;76.00
19060;DHT22;9663;48.996;8.334;2023-01-26T10:00:39;4.90;74.00
19060;DHT22;9663;48.996;8.334;2023-01-26T10:03:38;4.90;74.00
19060;DHT22;9663;48.996;8.334;2023-01-26T10:06:23;4.70;74.00
19060;DHT22;9663;48.996;8.334;2023-01-26T10:08:59;5.10;74.30
19060;DHT22;9663;48.996;8.334;2023-01-26T10:11:52;5.40;75.90
19060;DHT22;9663;48.996;8.334;2023-01-26T10:14:42;5.10;75.50
19060;DHT22;9663;48.996;8.334;2023-01-26T10:20:04;5.10;74.10
19060;DHT22;9663;48.996;8.334;2023-01-26T10:22:47;4.80;75.50
19060;DHT22;9663;48.996;8.334;2023-01-26T10:25:29;4.80;75.70
19060;DHT22;9663;48.996;8.334;2023-01-26T10:28:10;4.70;75.30
19060;DHT22;9663;48.996;8.334;2023-01-26T10:30:40;5.90;76.10
19060;DHT22;9663;48.996;8.334;2023-01-26T10:33:17;5.20;75.90
19060;DHT22;9663;48.996;8.334;2023-01-26T10:35:52;5.10;75.80
19060;DHT22;9663;48.996;8.334;2023-01-26T10:41:19;4.70;73.90
19060;DHT22;9663;48.996;8.334;2023-01-26T10:44:25;4.90;74.30
19060;DHT22;9663;48.996;8.334;2023-01-26T10:49:39;4.70;74.30
19060;DHT22;9663;48.996;8.334;2023-01-26T10:54:44;4.60;75.40
19060;DHT22;9663;48.996;8.334;2023-01-26T10:59:59;4.60;73.90
19060;DHT22;9663;48.996;8.334;2023-01-26T11:02:34;5.00;75.90
19060;DHT22;9663;48.996;8.334;2023-01-26T11:07:40;6.90;77.40
19060;DHT22;9663;48.996;8.334;2023-01-26T11:12:46;4.90;76.60
19060;DHT22;9663;48.996;8.334;2023-01-26T11:15:21;5.10;76.10
19060;DHT22;9663;48.996;8.334;2023-01-26T11:32:29;5.20;74.20
19060;DHT22;9663;48.996;8.334;2023-01-26T11:35:13;5.00;74.80
19060;DHT22;9663;48.996;8.334;2023-01-26T11:40:46;4.20;73.90
19060;DHT22;9663;48.996;8.334;2023-01-26T11:46:40;4.70;74.70
19060;DHT22;9663;48.996;8.334;2023-01-26T11:49:28;4.60;74.70
19060;DHT22;9663;48.996;8.334;2023-01-26T11:52:17;4.60;75.50
19060;DHT22;9663;48.996;8.334;2023-01-26T11:58:35;4.10;74.00
19060;DHT22;9663;48.996;8.334;2023-01-26T12:01:28;4.60;74.30
19060;DHT22;9663;48.996;8.334;2023-01-26T12:03:57;4.70;75.80
19060;DHT22;9663;48.996;8.334;2023-01-26T12:06:36;4.70;75.70
19060;DHT22;9663;48.996;8.334;2023-01-26T12:09:16;4.30;75.60
19060;DHT22;9663;48.996;8.334;2023-01-26T12:12:04;4.10;73.80
19060;DHT22;9663;48.996;8.334;2023-01-26T12:14:55;5.80;76.40
19060;DHT22;9663;48.996;8.334;2023-01-26T12:20:50;4.60;74.10
19060;DHT22;9663;48.996;8.334;2023-01-26T12:25:55;4.40;75.70
19060;DHT22;9663;48.996;8.334;2023-01-26T12:29:00;4.30;75.60
19060;DHT22;9663;48.996;8.334;2023-01-26T12:31:56;4.30;73.80
19060;DHT22;9663;48.996;8.334;2023-01-26T12:34:28;4.80;74.90
19060;DHT22;9663;48.996;8.334;2023-01-26T12:37:31;4.40;75.50
19060;DHT22;9663;48.996;8.334;2023-01-26T12:40:39;4.40;73.90
19060;DHT22;9663;48.996;8.334;2023-01-26T12:43:48;4.80;75.70
19060;DHT22;9663;48.996;8.334;2023-01-26T12:46:23;5.90;74.50
19060;DHT22;9663;48.996;8.334;2023-01-26T12:49:14;4.50;75.10
19060;DHT22;9663;48.996;8.334;2023-01-26T12:51:51;4.70;73.80
19060;DHT22;9663;48.996;8.334;2023-01-26T12:54:47;4.30;75.20
19060;DHT22;9663;48.996;8.334;2023-01-26T12:57:34;4.60;73.50
19060;DHT22;9663;48.996;8.334;2023-01-26T13:00:17;5.10;75.50
19060;DHT22;9663;48.996;8.334;2023-01-26T13:02:48;4.70;75.30
19060;DHT22;9663;48.996;8.334;2023-01-26T13:05:33;4.70;75.30
19060;DHT22;9663;48.996;8.334;2023-01-26T13:10:59;4.90;74.70
19060;DHT22;9663;48.996;8.334;2023-01-26T13:13:31;4.50;72.80
19060;DHT22;9663;48.996;8.334;2023-01-26T13:18:55;4.50;74.30
19060;DHT22;9663;48.996;8.334;2023-01-26T13:26:53;4.90;74.60
19060;DHT22;9663;48.996;8.334;2023-01-26T13:31:53;5.00;74.70
19060;DHT22;9663;48.996;8.334;2023-01-26T13:34:36;5.30;74.90
19060;DHT22;9663;48.996;8.334;2023-01-26T13:40:45;4.80;72.80
19060;DHT22;9663;48.996;8.334;2023-01-26T13:43:42;4.80;74.00
19060;DHT22;9663;48.996;8.334;2023-01-26T13:47:14;5.10;72.90
19060;DHT22;9663;48.996;8.334;2023-01-26T13:49:39;5.20;74.50
19060;DHT22;9663;48.996;8.334;2023-01-26T13:52:25;5.20;74.30
19060;DHT22;9663;48.996;8.334;2023-01-26T13:54:53;5.30;72.70
19060;DHT22;9663;48.996;8.334;2023-01-26T13:57:27;4.90;74.00
19060;DHT22;9663;48.996;8.334;2023-01-26T13:59:58;4.90;73.70
19060;DHT22;9663;48.996;8.334;2023-01-26T14:02:30;4.70;73.50
19060;DHT22;9663;48.996;8.334;2023-01-26T14:04:59;4.90;73.80
19060;DHT22;9663;48.996;8.334;2023-01-26T14:07:27;5.00;74.30
19060;DHT22;9663;48.996;8.334;2023-01-26T14:09:57;5.30;74.40
19060;DHT22;9663;48.996;8.334;2023-01-26T14:12:34;5.10;74.30
19060;DHT22;9663;48.996;8.334;2023-01-26T14:15:06;5.00;74.30
19060;DHT22;9663;48.996;8.334;2023-01-26T14:17:58;4.60;73.40
19060;DHT22;9663;48.996;8.334;2023-01-26T14:23:09;4.70;73.80
19060;DHT22;9663;48.996;8.334;2023-01-26T14:26:05;4.80;73.90
19060;DHT22;9663;48.996;8.334;2023-01-26T14:28:42;4.70;72.20
19060;DHT22;9663;48.996;8.334;2023-01-26T14:31:13;4.80;74.60
19060;DHT22;9663;48.996;8.334;2023-01-26T14:33:43;4.60;73.80
19060;DHT22;9663;48.996;8.334;2023-01-26T14:36:15;4.60;73.80
19060;DHT22;9663;48.996;8.334;2023-01-26T14:38:45;4.60;73.70
19060;DHT22;9663;48.996;8.334;2023-01-26T14:41:17;4.50;73.60
19060;DHT22;9663;48.996;8.334;2023-01-26T14:43:50;4.10;73.30
19060;DHT22;9663;48.996;8.334;2023-01-26T14:46:25;4.60;73.70
19060;DHT22;9663;48.996;8.334;2023-01-26T14:49:02;4.50;72.10
19060;DHT22;9663;48.996;8.334;2023-01-26T14:51:32;4.90;74.20
19060;DHT22;9663;48.996;8.334;2023-01-26T14:54:02;4.20;73.80
19060;DHT22;9663;48.996;8.334;2023-01-26T14:56:37;4.50;74.00
19060;DHT22;9663;48.996;8.334;2023-01-26T14:59:06;4.50;74.10
19060;DHT22;9663;48.996;8.334;2023-01-26T15:01:34;4.60;74.30
19060;DHT22;9663;48.996;8.334;2023-01-26T15:04:13;4.60;73.90
19060;DHT22;9663;48.996;8.334;2023-01-26T15:06:47;4.30;73.80
19060;DHT22;9663;48.996;8.334;2023-01-26T15:09:24;4.80;74.20
19060;DHT22;9663;48.996;8.334;2023-01-26T15:11:57;4.40;73.80
19060;DHT22;9663;48.996;8.334;2023-01-26T15:17:37;4.50;73.90
19060;DHT22;9663;48.996;8.334;2023-01-26T15:22:40;4.40;73.90
19060;DHT22;9663;48.996;8.334;2023-01-26T15:25:16;4.60;74.10
19060;DHT22;9663;48.996;8.334;2023-01-26T15:27:52;4.30;74.00
19060;DHT22;9663;48.996;8.334;2023-01-26T15:30:32;4.20;72.20
19060;DHT22;9663;48.996;8.334;2023-01-26T15:32:59;4.40;74.00
19060;DHT22;9663;48.996;8.334;2023-01-26T15:35:28;4.30;74.00
19060;DHT22;9663;48.996;8.334;2023-01-26T15:38:14;4.30;74.10
19060;DHT22;9663;48.996;8.334;2023-01-26T15:40:39;4.40;73.70
19060;DHT22;9663;48.996;8.334;2023-01-26T15:43:18;4.40;73.70
19060;DHT22;9663;48.996;8.334;2023-01-26T15:45:56;4.40;72.40
19060;DHT22;9663;48.996;8.334;2023-01-26T15:48:23;4.20;73.90
19060;DHT22;9663;48.996;8.334;2023-01-26T15:50:49;4.00;73.70
19060;DHT22;9663;48.996;8.334;2023-01-26T15:53:20;4.30;74.00
19060;DHT22;9663;48.996;8.334;2023-01-26T15:55:47;3.90;73.80
19060;DHT22;9663;48.996;8.334;2023-01-26T15:58:20;3.90;73.80
19060;DHT22;9663;48.996;8.334;2023-01-26T16:00:48;3.90;74.60
19060;DHT22;9663;48.996;8.334;2023-01-26T16:03:16;4.00;74.30
19060;DHT22;9663;48.996;8.334;2023-01-26T16:05:44;4.10;74.50
19060;DHT22;9663;48.996;8.334;2023-01-26T16:08:17;4.20;74.40
19060;DHT22;9663;48.996;8.334;2023-01-26T16:10:43;3.90;72.30
19060;DHT22;9663;48.996;8.334;2023-01-26T16:13:11;4.50;74.30
19060;DHT22;9663;48.996;8.334;2023-01-26T16:15:42;3.80;73.90
19060;DHT22;9663;48.996;8.334;2023-01-26T16:18:09;4.00;74.10
19060;DHT22;9663;48.996;8.334;2023-01-26T16:20:37;4.90;75.20
19060;DHT22;9663;48.996;8.334;2023-01-26T16:23:14;4.10;74.60
19060;DHT22;9663;48.996;8.334;2023-01-26T16:25:42;3.40;74.20
19060;DHT22;9663;48.996;8.334;2023-01-26T16:28:08;3.90;74.30
19060;DHT22;9663;48.996;8.334;2023-01-26T16:30:34;3.80;74.20
19060;DHT22;9663;48.996;8.334;2023-01-26T16:33:00;3.80;74.50
19060;DHT22;9663;48.996;8.334;2023-01-26T16:35:26;3.70;74.10
19060;DHT22;9663;48.996;8.334;2023-01-26T16:37:53;3.60;73.90
19060;DHT22;9663;48.996;8.334;2023-01-26T16:40:19;3.70;73.80
19060;DHT22;9663;48.996;8.334;2023-01-26T16:42:48;3.90;73.80
19060;DHT22;9663;48.996;8.334;2023-01-26T16:45:20;3.70;73.50
19060;DHT22;9663;48.996;8.334;2023-01-26T16:47:53;3.90;73.70
19060;DHT22;9663;48.996;8.334;2023-01-26T16:50:24;4.30;74.90
19060;DHT22;9663;48.996;8.334;2023-01-26T16:52:51;3.80;72.30
19060;DHT22;9663;48.996;8.334;2023-01-26T16:55:17;3.60;73.80
19060;DHT22;9663;48.996;8.334;2023-01-26T16:57:45;3.60;73.40
19060;DHT22;9663;48.996;8.334;2023-01-26T17:00:16;3.70;73.20
19060;DHT22;9663;48.996;8.334;2023-01-26T17:02:47;3.30;72.80
19060;DHT22;9663;48.996;8.334;2023-01-26T17:05:17;3.70;73.60
19060;DHT22;9663;48.996;8.334;2023-01-26T17:07:45;3.80;73.90
19060;DHT22;9663;48.996;8.334;2023-01-26T17:10:13;4.10;73.70
19060;DHT22;9663;48.996;8.334;2023-01-26T17:12:40;3.60;73.80
19060;DHT22;9663;48.996;8.334;2023-01-26T17:15:08;3.50;73.40
19060;DHT22;9663;48.996;8.334;2023-01-26T17:17:35;3.60;73.40
19060;DHT22;9663;48.996;8.334;2023-01-26T17:20:03;4.00;73.50
19060;DHT22;9663;48.996;8.334;2023-01-26T17:22:30;3.90;73.80
19060;DHT22;9663;48.996;8.334;2023-01-26T17:24:56;3.30;73.70
19060;DHT22;9663;48.996;8.334;2023-01-26T17:27:23;3.60;73.60
19060;DHT22;9663;48.996;8.334;2023-01-26T17:29:49;4.70;74.40
19060;DHT22;9663;48.996;8.334;2023-01-26T17:32:15;4.10;73.80
19060;DHT22;9663;48.996;8.334;2023-01-26T17:34:48;4.50;73.90
19060;DHT22;9663;48.996;8.334;2023-01-26T17:37:14;3.70;73.90
19060;DHT22;9663;48.996;8.334;2023-01-26T17:39:40;3.80;74.20
19060;DHT22;9663;48.996;8.334;2023-01-26T17:42:06;3.90;74.20
19060;DHT22;9663;48.996;8.334;2023-01-26T17:44:32;3.70;74.00
19060;DHT22;9663;48.996;8.334;2023-01-26T17:46:57;4.00;74.00
19060;DHT22;9663;48.996;8.334;2023-01-26T17:49:23;3.70;73.30
19060;DHT22;9663;48.996;8.334;2023-01-26T17:51:49;4.00;73.70
19060;DHT22;9663;48.996;8.334;2023-01-26T17:54:15;4.30;73.60
19060;DHT22;9663;48.996;8.334;2023-01-26T17:56:41;4.20;73.60
19060;DHT22;9663;48.996;8.334;2023-01-26T17:59:07;4.00;73.40
19060;DHT22;9663;48.996;8.334;2023-01-26T18:01:33;4.00;73.40